Time;durP1;ratioP1;P1;durP2;ratioP2;P2;SDS_P1;SDS_P2;PMS_P1;PMS_P2;Temp;Humidity;BMP_temperature;BMP_pressure;BME280_temperature;BME280_humidity;BME280_pressure;Samples;Min_cycle;Max_cycle;Signal;HPM_P1;HPM_P2
2022/10/24 00:01:12;;;;;;;4.38;1.80;;;16.60;84.90;;;;;;5037992;28;20031;-88
2022/10/24 00:03:38;;;;;;;5.75;2.30;;;16.70;84.80;;;;;;5037902;28;20033;-88
2022/10/24 00:06:06;;;;;;;4.15;1.98;;;16.70;84.60;;;;;;5037832;28;20029;-88
2022/10/24 00:08:33;;;;;;;5.82;1.90;;;16.60;85.40;;;;;;5054846;28;20064;-88
2022/10/24 00:10:59;;;;;;;4.47;1.80;;;16.60;84.70;;;;;;5054372;28;20017;-88
2022/10/24 00:13:24;;;;;;;5.95;2.03;;;16.60;84.40;;;;;;5038040;28;20398;-88
2022/10/24 00:15:51;;;;;;;6.90;2.40;;;16.60;84.20;;;;;;5054928;28;20024;-88
2022/10/24 00:18:17;;;;;;;4.65;1.80;;;16.60;84.20;;;;;;5038232;28;20036;-88
2022/10/24 00:20:43;;;;;;;3.00;2.00;;;16.60;84.00;;;;;;5038007;28;20390;-88
2022/10/24 00:23:09;;;;;;;6.60;1.70;;;16.60;83.70;;;;;;5054612;28;20032;-88
2022/10/24 00:25:35;;;;;;;8.07;1.67;;;16.60;83.40;;;;;;5054200;28;20036;-88
2022/10/24 00:28:01;;;;;;;4.65;1.65;;;16.60;83.00;;;;;;5037778;28;20032;-90
2022/10/24 00:30:26;;;;;;;3.85;1.52;;;16.70;83.00;;;;;;5054301;28;20074;-90
2022/10/24 00:32:52;;;;;;;5.53;1.60;;;16.70;82.60;;;;;;5037526;28;20486;-90
2022/10/24 00:35:18;;;;;;;9.63;1.60;;;16.70;82.40;;;;;;5053948;28;20057;-90
2022/10/24 00:37:44;;;;;;;5.57;1.60;;;16.70;82.30;;;;;;5053413;28;20024;-90
2022/10/24 00:40:13;;;;;;;5.13;1.40;;;16.70;82.10;;;;;;5037211;28;20082;-89
2022/10/24 00:42:38;;;;;;;6.18;1.60;;;16.70;81.80;;;;;;5053826;28;20021;-90
2022/10/24 00:45:30;;;;;;;6.68;1.60;;;16.70;81.60;;;;;;5036932;28;20048;-90
2022/10/24 00:47:56;;;;;;;6.60;1.85;;;16.70;81.20;;;;;;5053688;28;20121;-90
2022/10/24 00:50:22;;;;;;;3.30;1.48;;;16.70;81.10;;;;;;5037587;28;20036;-89
2022/10/24 00:52:48;;;;;;;3.20;1.70;;;16.70;80.70;;;;;;5037780;28;20033;-90
2022/10/24 00:55:14;;;;;;;4.82;1.50;;;16.80;81.30;;;;;;5037300;28;20040;-90
2022/10/24 00:57:55;;;;;;;6.25;1.65;;;16.80;80.30;;;;;;5053635;28;20033;-90
2022/10/24 01:00:24;;;;;;;5.15;1.60;;;16.90;80.20;;;;;;5054542;28;20025;-90
2022/10/24 01:02:50;;;;;;;4.00;1.60;;;16.90;80.00;;;;;;5053637;28;20084;-90
2022/10/24 01:05:17;;;;;;;5.45;1.75;;;16.90;80.00;;;;;;5037421;28;20022;-90
2022/10/24 01:07:52;;;;;;;4.10;1.52;;;16.90;79.70;;;;;;5054184;28;20029;-90
2022/10/24 01:10:24;;;;;;;8.38;2.08;;;16.90;79.60;;;;;;5053003;28;20541;-90
2022/10/24 01:13:14;;;;;;;6.57;2.10;;;16.90;79.50;;;;;;5053115;28;20028;-90
2022/10/24 01:15:48;;;;;;;5.13;1.90;;;16.90;79.10;;;;;;5053853;28;20025;-90
2022/10/24 01:18:27;;;;;;;6.47;2.08;;;16.90;79.20;;;;;;5053465;28;20414;-90
2022/10/24 01:21:11;;;;;;;4.50;2.00;;;17.00;78.70;;;;;;5053028;28;20029;-90
2022/10/24 01:23:53;;;;;;;4.57;2.10;;;16.90;78.60;;;;;;5052539;28;20021;-89
2022/10/24 01:26:50;;;;;;;8.05;2.25;;;17.00;78.40;;;;;;5052931;28;20107;-90
2022/10/24 01:29:19;;;;;;;6.50;2.30;;;16.90;78.40;;;;;;5053167;28;20037;-90
2022/10/24 01:32:00;;;;;;;3.50;1.65;;;16.90;78.50;;;;;;5052745;28;20514;-89
2022/10/24 01:34:29;;;;;;;4.18;1.90;;;16.80;78.40;;;;;;5053071;28;20021;-90
2022/10/24 01:37:01;;;;;;;5.38;1.98;;;16.80;78.20;;;;;;5052724;28;20021;-90
2022/10/24 01:39:32;;;;;;;5.68;2.08;;;16.90;78.00;;;;;;5052480;28;20043;-90
2022/10/24 01:42:01;;;;;;;7.40;2.47;;;16.90;77.70;;;;;;5052497;28;20028;-89
2022/10/24 01:44:32;;;;;;;3.63;1.80;;;16.90;77.70;;;;;;5052832;28;20019;-91
2022/10/24 01:47:06;;;;;;;4.75;1.95;;;16.90;77.40;;;;;;5053234;28;20072;-90
2022/10/24 01:49:36;;;;;;;6.03;2.03;;;17.00;76.90;;;;;;5053515;28;20378;-90
2022/10/24 01:52:06;;;;;;;8.20;2.00;;;17.00;76.80;;;;;;5052979;28;20052;-90
2022/10/24 01:54:32;;;;;;;4.20;1.92;;;17.00;77.00;;;;;;5052443;28;20024;-89
2022/10/24 01:56:58;;;;;;;4.95;2.08;;;17.00;76.70;;;;;;5035909;28;20445;-89
2022/10/24 01:59:27;;;;;;;5.07;2.03;;;17.00;76.00;;;;;;5035668;28;20036;-89
2022/10/24 02:02:13;;;;;;;4.35;1.80;;;17.00;76.30;;;;;;5052753;28;20025;-90
2022/10/24 02:04:48;;;;;;;4.13;1.88;;;17.00;76.10;;;;;;5031988;28;20036;-90
2022/10/24 02:07:15;;;;;;;4.00;1.90;;;17.00;76.00;;;;;;5053031;28;20017;-90
2022/10/24 02:09:42;;;;;;;7.05;1.85;;;17.00;75.60;;;;;;5036870;28;20017;-91
2022/10/24 02:12:10;;;;;;;6.30;1.92;;;17.00;75.10;;;;;;5052180;28;20060;-90
2022/10/24 02:14:42;;;;;;;3.72;1.70;;;17.00;75.20;;;;;;5053084;28;20398;-90
2022/10/24 02:17:09;;;;;;;3.80;1.90;;;17.00;74.70;;;;;;5053814;28;20043;-91
2022/10/24 02:19:36;;;;;;;7.03;1.92;;;17.00;74.60;;;;;;5036143;28;20032;-90
2022/10/24 02:22:38;;;;;;;4.53;2.20;;;17.00;74.50;;;;;;5052440;28;20102;-89
2022/10/24 02:25:04;;;;;;;6.10;1.73;;;17.10;74.00;;;;;;5052505;28;20108;-89
2022/10/24 02:27:46;;;;;;;3.42;1.50;;;17.10;74.00;;;;;;5053242;28;20044;-91
2022/10/24 02:30:15;;;;;;;3.45;1.50;;;17.10;74.10;;;;;;5052225;28;20078;-89
2022/10/24 02:32:43;;;;;;;2.85;1.27;;;17.10;73.30;;;;;;5052625;28;20455;-90
2022/10/24 02:35:13;;;;;;;4.32;1.40;;;17.10;73.50;;;;;;5054789;28;20056;-89
2022/10/24 02:37:43;;;;;;;3.97;1.35;;;17.10;74.40;;;;;;5056362;28;20032;-90
2022/10/24 02:40:11;;;;;;;2.70;1.33;;;17.10;73.50;;;;;;5055778;28;20395;-90
2022/10/24 02:42:38;;;;;;;5.07;1.95;;;17.20;73.60;;;;;;5056477;28;20029;-90
2022/10/24 02:45:08;;;;;;;3.20;1.52;;;17.10;73.60;;;;;;5039651;28;20055;-89
2022/10/24 02:47:34;;;;;;;2.60;1.30;;;17.00;73.40;;;;;;5039994;28;20033;-90
2022/10/24 02:50:01;;;;;;;3.75;1.50;;;17.10;72.90;;;;;;5039852;28;20017;-90
2022/10/24 02:52:29;;;;;;;1.92;1.17;;;17.00;73.10;;;;;;5039861;28;20035;-90
2022/10/24 02:54:54;;;;;;;3.75;1.35;;;17.10;72.50;;;;;;5039736;28;20440;-90
2022/10/24 02:57:22;;;;;;;3.58;1.30;;;17.10;72.70;;;;;;5039563;28;20021;-91
2022/10/24 02:59:48;;;;;;;5.28;1.75;;;17.10;72.60;;;;;;5039541;28;20124;-90
2022/10/24 03:02:14;;;;;;;2.38;1.30;;;17.10;73.60;;;;;;5039727;28;20029;-90
2022/10/24 03:04:39;;;;;;;3.83;1.33;;;17.10;72.70;;;;;;5056067;28;20082;-90
2022/10/24 03:07:06;;;;;;;4.75;1.20;;;17.10;72.10;;;;;;5055885;28;20033;-89
2022/10/24 03:09:33;;;;;;;3.53;1.10;;;17.10;72.20;;;;;;5055752;28;20029;-90
2022/10/24 03:11:58;;;;;;;3.90;1.80;;;17.10;72.00;;;;;;5039144;28;20085;-89
2022/10/24 03:14:24;;;;;;;2.50;1.25;;;17.10;72.10;;;;;;5056674;28;20037;-89
2022/10/24 03:16:50;;;;;;;2.33;1.20;;;17.20;72.10;;;;;;5039152;28;20120;-90
2022/10/24 03:19:15;;;;;;;3.83;1.35;;;17.20;71.80;;;;;;5038821;28;20029;-89
2022/10/24 03:21:41;;;;;;;7.35;1.75;;;17.10;72.00;;;;;;5055634;28;20413;-90
2022/10/24 03:24:07;;;;;;;4.07;1.42;;;17.10;72.20;;;;;;5055802;28;20049;-89
2022/10/24 03:26:33;;;;;;;3.15;1.30;;;17.10;71.80;;;;;;5038934;28;20502;-90
2022/10/24 03:28:58;;;;;;;3.22;1.20;;;17.20;71.90;;;;;;5038666;28;20106;-90
2022/10/24 03:31:24;;;;;;;3.10;1.30;;;17.10;71.90;;;;;;5038644;28;20084;-90
2022/10/24 03:33:50;;;;;;;4.35;1.55;;;17.20;71.80;;;;;;5055384;28;20025;-90
2022/10/24 03:36:16;;;;;;;2.83;1.27;;;17.20;72.70;;;;;;5038409;28;20051;-89
2022/10/24 03:38:41;;;;;;;6.78;1.45;;;17.20;72.00;;;;;;5038325;28;20483;-89
2022/10/24 03:41:07;;;;;;;4.50;1.13;;;17.10;71.80;;;;;;5038467;28;20036;-90
2022/10/24 03:43:33;;;;;;;2.65;1.20;;;17.10;71.60;;;;;;5038467;28;20029;-90
2022/10/24 03:45:58;;;;;;;5.90;1.60;;;17.10;71.70;;;;;;5037573;28;20017;-90
2022/10/24 03:48:25;;;;;;;3.08;1.98;;;17.10;71.50;;;;;;5039009;28;20044;-90
2022/10/24 03:50:50;;;;;;;4.90;1.25;;;17.10;72.00;;;;;;5038812;28;20378;-91
2022/10/24 03:53:16;;;;;;;4.10;1.40;;;17.20;72.20;;;;;;5038096;28;20029;-90
2022/10/24 03:55:42;;;;;;;3.67;1.30;;;17.10;72.00;;;;;;5037986;28;20025;-90
2022/10/24 03:58:07;;;;;;;3.67;1.33;;;17.10;72.00;;;;;;5038594;28;20032;-90
2022/10/24 04:00:38;;;;;;;4.65;1.55;;;17.10;72.10;;;;;;5054948;28;20056;-90
2022/10/24 04:03:04;;;;;;;6.80;1.58;;;17.10;72.10;;;;;;5054863;28;20443;-90
2022/10/24 04:05:29;;;;;;;3.92;1.00;;;17.10;72.30;;;;;;5038116;28;20032;-90
2022/10/24 04:07:55;;;;;;;5.35;1.15;;;17.00;72.00;;;;;;5054448;28;20032;-91
2022/10/24 04:10:21;;;;;;;3.97;1.50;;;17.00;72.20;;;;;;5038590;28;20079;-89
2022/10/24 04:12:46;;;;;;;3.92;1.40;;;17.00;72.50;;;;;;5054683;28;20029;-88
2022/10/24 04:15:12;;;;;;;4.93;1.17;;;17.00;72.20;;;;;;5038120;28;20192;-88
2022/10/24 04:17:38;;;;;;;3.45;1.17;;;17.00;72.40;;;;;;5037936;28;20522;-88
2022/10/24 04:20:04;;;;;;;5.72;1.20;;;17.00;72.50;;;;;;5037679;28;20107;-88
2022/10/24 04:22:30;;;;;;;1.80;1.10;;;17.00;72.40;;;;;;5037161;28;20041;-88
2022/10/24 04:24:56;;;;;;;5.97;1.40;;;17.00;72.20;;;;;;5037508;28;20021;-88
2022/10/24 04:27:21;;;;;;;3.67;1.30;;;16.90;72.60;;;;;;5054477;28;20374;-87
2022/10/24 04:29:47;;;;;;;3.88;1.20;;;17.00;72.50;;;;;;5038663;28;20479;-88
2022/10/24 04:32:12;;;;;;;1.95;1.20;;;17.00;72.40;;;;;;5034819;28;20053;-88
2022/10/24 04:34:38;;;;;;;2.92;0.90;;;17.00;72.20;;;;;;5036945;28;20033;-88
2022/10/24 04:37:04;;;;;;;5.53;1.17;;;17.00;72.30;;;;;;5036895;28;20021;-89
2022/10/24 04:39:30;;;;;;;5.45;1.15;;;17.00;72.40;;;;;;5037272;28;20375;-88
2022/10/24 04:41:55;;;;;;;3.97;1.45;;;17.00;72.30;;;;;;5037178;28;20089;-89
2022/10/24 04:44:21;;;;;;;6.00;1.30;;;16.90;73.20;;;;;;5037356;28;20036;-89
2022/10/24 04:46:47;;;;;;;4.28;0.90;;;16.90;72.30;;;;;;5037748;28;20032;-90
2022/10/24 04:49:12;;;;;;;2.92;1.08;;;16.90;72.40;;;;;;5037125;28;20024;-89
2022/10/24 04:51:38;;;;;;;2.10;1.17;;;16.90;72.30;;;;;;5037623;28;20029;-89
2022/10/24 04:54:05;;;;;;;3.38;1.10;;;16.90;72.40;;;;;;5036919;28;20013;-90
2022/10/24 04:56:30;;;;;;;4.30;1.35;;;16.90;72.30;;;;;;5053557;28;20052;-91
2022/10/24 04:58:56;;;;;;;3.55;1.00;;;17.00;72.40;;;;;;5037205;28;20036;-90
2022/10/24 05:01:22;;;;;;;4.68;1.17;;;16.90;72.60;;;;;;5037510;28;20032;-89
2022/10/24 05:03:47;;;;;;;3.63;1.17;;;16.90;72.40;;;;;;5036866;28;20037;-90
2022/10/24 05:06:13;;;;;;;3.42;1.20;;;16.90;72.30;;;;;;5036844;28;20032;-90
2022/10/24 05:08:38;;;;;;;6.35;1.45;;;16.90;72.60;;;;;;5036793;28;20025;-90
2022/10/24 05:11:04;;;;;;;4.35;1.67;;;16.90;72.60;;;;;;5036355;28;20021;-90
2022/10/24 05:13:30;;;;;;;3.30;1.00;;;16.90;72.90;;;;;;5036885;28;20047;-90
2022/10/24 05:15:55;;;;;;;7.15;1.20;;;16.90;72.80;;;;;;5036791;28;20090;-90
2022/10/24 05:18:21;;;;;;;4.25;0.80;;;16.90;73.10;;;;;;5037299;28;20544;-88
2022/10/24 05:20:47;;;;;;;3.10;1.20;;;16.90;72.40;;;;;;5036493;28;20128;-88
2022/10/24 05:23:12;;;;;;;4.38;1.08;;;16.90;72.90;;;;;;5036994;28;20179;-88
2022/10/24 05:25:38;;;;;;;3.33;1.00;;;17.00;72.90;;;;;;5036252;28;20558;-89
2022/10/24 05:28:04;;;;;;;3.97;0.82;;;17.00;72.90;;;;;;5036127;28;20097;-88
2022/10/24 05:30:29;;;;;;;4.90;0.70;;;17.00;72.90;;;;;;5053543;28;20025;-88
2022/10/24 05:32:55;;;;;;;3.90;0.90;;;17.00;72.90;;;;;;5037391;28;20060;-88
2022/10/24 05:35:21;;;;;;;4.85;1.10;;;17.00;73.00;;;;;;5041911;28;20442;-88
2022/10/24 05:37:47;;;;;;;4.30;0.80;;;17.00;73.20;;;;;;5051000;28;20103;-88
2022/10/24 05:40:13;;;;;;;8.30;0.90;;;16.90;73.40;;;;;;5016731;28;20037;-88
2022/10/24 05:42:39;;;;;;;2.20;1.15;;;16.90;73.40;;;;;;5015963;28;20506;-87
2022/10/24 05:45:06;;;;;;;3.47;0.77;;;16.90;73.60;;;;;;5036569;28;20021;-88
2022/10/24 05:47:32;;;;;;;3.30;0.90;;;16.90;73.70;;;;;;5054919;28;20385;-87
2022/10/24 05:49:57;;;;;;;3.10;0.98;;;16.90;73.80;;;;;;5053683;28;20116;-87
2022/10/24 05:52:23;;;;;;;4.75;1.17;;;17.00;73.70;;;;;;5054831;28;20029;-87
2022/10/24 05:54:49;;;;;;;4.50;1.27;;;17.00;73.70;;;;;;5036532;28;20025;-87
2022/10/24 05:57:15;;;;;;;6.55;1.23;;;17.00;73.70;;;;;;5036946;28;20083;-89
2022/10/24 05:59:40;;;;;;;5.30;1.00;;;17.00;73.30;;;;;;5036130;28;20390;-88
2022/10/24 06:02:08;;;;;;;3.05;0.80;;;17.00;73.70;;;;;;5036460;28;20025;-90
2022/10/24 06:04:34;;;;;;;5.80;1.35;;;17.00;73.40;;;;;;5053999;28;20036;-89
2022/10/24 06:07:00;;;;;;;6.78;1.30;;;17.00;73.80;;;;;;5035751;28;20017;-89
2022/10/24 06:09:25;;;;;;;4.90;0.95;;;17.00;73.70;;;;;;5035659;28;20119;-89
2022/10/24 06:11:51;;;;;;;6.18;1.17;;;17.00;73.50;;;;;;5035803;28;20036;-88
2022/10/24 06:14:16;;;;;;;7.97;1.10;;;17.00;73.50;;;;;;5035893;28;20021;-88
2022/10/24 06:16:42;;;;;;;5.70;0.95;;;17.00;73.40;;;;;;5035688;28;20025;-89
2022/10/24 06:19:08;;;;;;;3.85;1.10;;;17.00;73.20;;;;;;5035693;28;20017;-88
2022/10/24 06:21:34;;;;;;;3.42;0.98;;;17.00;73.20;;;;;;5052442;28;20120;-88
2022/10/24 06:23:59;;;;;;;8.05;1.25;;;17.00;73.30;;;;;;5035202;28;20039;-88
2022/10/24 06:26:25;;;;;;;5.28;1.20;;;17.00;73.40;;;;;;5053176;28;20060;-87
2022/10/24 06:28:54;;;;;;;3.33;0.88;;;17.00;73.50;;;;;;5036427;28;20054;-89
2022/10/24 06:31:20;;;;;;;5.13;0.93;;;16.90;73.60;;;;;;5052945;28;20037;-90
2022/10/24 06:33:46;;;;;;;7.53;1.08;;;16.90;73.40;;;;;;5036401;28;20394;-89
2022/10/24 06:36:13;;;;;;;7.38;1.20;;;16.90;73.60;;;;;;5035882;28;20033;-87
2022/10/24 06:38:38;;;;;;;3.92;0.80;;;16.90;73.70;;;;;;5036383;28;20163;-89
2022/10/24 06:41:09;;;;;;;4.20;0.90;;;16.90;73.70;;;;;;5035982;28;20071;-90
2022/10/24 06:43:36;;;;;;;3.17;0.82;;;16.90;73.70;;;;;;5053336;28;20025;-90
2022/10/24 06:46:10;;;;;;;10.52;2.05;;;16.90;73.90;;;;;;5052956;28;20021;-89
2022/10/24 06:48:36;;;;;;;7.28;1.00;;;16.90;74.00;;;;;;5037276;28;20111;-89
2022/10/24 06:51:02;;;;;;;5.00;0.90;;;16.90;74.10;;;;;;5036180;28;20029;-88
2022/10/24 06:53:28;;;;;;;7.00;1.00;;;16.80;74.00;;;;;;5053841;28;20033;-89
2022/10/24 06:55:53;;;;;;;6.22;1.17;;;16.90;73.90;;;;;;5037133;28;20087;-89
2022/10/24 06:58:19;;;;;;;2.95;0.80;;;16.90;73.90;;;;;;5036672;28;20029;-90
2022/10/24 07:00:44;;;;;;;3.85;1.00;;;16.90;73.90;;;;;;5036815;28;20021;-89
2022/10/24 07:03:14;;;;;;;5.13;0.90;;;16.90;74.40;;;;;;5035360;28;20025;-89
2022/10/24 07:05:40;;;;;;;4.15;1.00;;;16.80;74.40;;;;;;5036153;28;20017;-89
2022/10/24 07:08:05;;;;;;;5.00;0.88;;;16.80;74.30;;;;;;5036145;28;20184;-90
2022/10/24 07:10:31;;;;;;;7.40;1.10;;;16.80;74.20;;;;;;5036036;28;20356;-90
2022/10/24 07:12:57;;;;;;;4.35;0.98;;;16.80;75.40;;;;;;5036404;28;20179;-90
2022/10/24 07:15:23;;;;;;;8.32;1.35;;;16.80;74.70;;;;;;5036183;28;20022;-88
2022/10/24 07:17:48;;;;;;;6.03;0.80;;;16.80;74.90;;;;;;5036574;28;20032;-90
2022/10/24 07:20:14;;;;;;;8.10;1.73;;;16.80;74.90;;;;;;5035641;28;20079;-89
2022/10/24 07:22:41;;;;;;;5.78;0.70;;;16.80;74.80;;;;;;5038547;28;20422;-88
2022/10/24 07:25:07;;;;;;;4.53;0.80;;;16.80;75.00;;;;;;5056287;28;20378;-89
2022/10/24 07:27:33;;;;;;;7.30;1.30;;;16.80;75.30;;;;;;5039513;28;20079;-90
2022/10/24 07:29:59;;;;;;;6.90;1.13;;;16.90;75.10;;;;;;5040121;28;20021;-90
2022/10/24 07:32:24;;;;;;;6.30;1.02;;;16.90;75.00;;;;;;5039695;28;20103;-89
2022/10/24 07:34:50;;;;;;;3.13;1.48;;;16.90;75.40;;;;;;5039674;28;20029;-90
2022/10/24 07:37:18;;;;;;;3.42;0.90;;;16.90;75.30;;;;;;5039413;28;20067;-90
2022/10/24 07:39:45;;;;;;;4.72;1.02;;;16.90;75.70;;;;;;5055349;28;20053;-89
2022/10/24 07:42:12;;;;;;;4.38;0.95;;;16.90;75.50;;;;;;5038985;28;20036;-88
2022/10/24 07:44:38;;;;;;;4.95;1.40;;;16.90;75.40;;;;;;5044912;28;20132;-87
2022/10/24 07:47:06;;;;;;;6.93;1.17;;;16.90;75.70;;;;;;5039902;28;20064;-87
2022/10/24 07:49:32;;;;;;;5.85;1.10;;;17.00;75.50;;;;;;5022772;28;20484;-87
2022/10/24 07:51:58;;;;;;;8.98;0.95;;;17.00;75.60;;;;;;5038884;28;20056;-88
2022/10/24 07:54:25;;;;;;;4.47;1.05;;;17.10;75.10;;;;;;5039099;28;20414;-87
2022/10/24 07:56:50;;;;;;;4.35;1.35;;;17.10;75.20;;;;;;5040261;28;20032;-87
2022/10/24 07:59:16;;;;;;;8.15;1.23;;;17.10;75.10;;;;;;5032930;28;20026;-88
2022/10/24 08:01:42;;;;;;;10.65;1.20;;;17.10;74.40;;;;;;5047930;28;20037;-88
2022/10/24 08:04:09;;;;;;;4.65;1.02;;;17.10;75.10;;;;;;5056641;28;20025;-87
2022/10/24 08:11:35;;;;;;;5.07;0.98;;;17.30;75.10;;;;;;5055441;28;20091;-87
2022/10/24 08:14:03;;;;;;;4.22;0.90;;;17.20;75.00;;;;;;5053093;28;20514;-87
2022/10/24 08:16:29;;;;;;;5.07;0.70;;;17.20;74.90;;;;;;5053107;28;20032;-88
2022/10/24 08:18:56;;;;;;;8.23;1.25;;;17.10;75.40;;;;;;5055878;28;20103;-88
2022/10/24 08:21:23;;;;;;;4.47;0.60;;;17.10;76.60;;;;;;5069303;28;20028;-89
2022/10/24 08:23:51;;;;;;;4.93;1.17;;;17.00;77.30;;;;;;5060695;28;20107;-88
2022/10/24 08:26:20;;;;;;;8.20;1.10;;;17.10;76.20;;;;;;5095514;28;20031;-87
2022/10/24 08:28:46;;;;;;;3.92;0.95;;;17.10;76.00;;;;;;5094995;28;20403;-89
2022/10/24 08:31:21;;;;;;;3.90;0.90;;;17.10;75.70;;;;;;5080022;28;20032;-91
2022/10/24 08:33:50;;;;;;;4.75;0.90;;;17.20;76.10;;;;;;5064052;28;20009;-90
2022/10/24 08:36:28;;;;;;;3.90;0.93;;;17.10;75.80;;;;;;5061079;28;20017;-91
2022/10/24 08:38:55;;;;;;;3.05;0.70;;;17.20;76.00;;;;;;5050434;28;20027;-91
2022/10/24 08:41:23;;;;;;;4.93;1.10;;;17.20;75.50;;;;;;5056673;28;20081;-90
2022/10/24 08:43:50;;;;;;;7.93;0.98;;;17.20;75.20;;;;;;5058752;28;20028;-89
2022/10/24 08:46:37;;;;;;;7.78;0.90;;;17.20;75.30;;;;;;5065837;28;20105;-90
2022/10/24 08:49:41;;;;;;;4.60;0.77;;;17.20;74.40;;;;;;5082053;28;20028;-91
2022/10/24 08:54:49;;;;;;;3.72;0.80;;;17.30;74.30;;;;;;5132926;28;20043;-73
2022/10/24 08:57:27;;;;;;;3.28;0.65;;;17.40;74.20;;;;;;5135263;28;20026;-74
2022/10/24 08:59:57;;;;;;;5.20;0.80;;;17.40;73.10;;;;;;5135245;28;20384;-78
2022/10/24 09:02:25;;;;;;;5.22;0.80;;;17.50;73.00;;;;;;5135378;28;20054;-73
2022/10/24 09:05:20;;;;;;;4.57;1.05;;;17.50;72.20;;;;;;5135167;28;20020;-73
2022/10/24 09:07:46;;;;;;;5.50;0.85;;;17.50;72.40;;;;;;5135007;28;20027;-73
2022/10/24 09:10:26;;;;;;;7.07;0.98;;;17.50;72.30;;;;;;5117005;28;20024;-73
2022/10/24 09:12:52;;;;;;;4.55;0.90;;;17.60;72.20;;;;;;5135045;28;20023;-73
2022/10/24 09:15:29;;;;;;;6.55;0.80;;;17.70;72.50;;;;;;5135086;28;20095;-73
2022/10/24 09:17:57;;;;;;;6.80;0.77;;;17.80;71.60;;;;;;5135073;28;20024;-73
2022/10/24 09:20:29;;;;;;;4.22;0.68;;;17.80;70.90;;;;;;5116753;28;20049;-73
2022/10/24 09:22:58;;;;;;;2.63;0.70;;;17.80;71.40;;;;;;5134674;28;20024;-73
2022/10/24 09:25:35;;;;;;;5.13;0.73;;;18.00;70.80;;;;;;5116038;28;20020;-73
2022/10/24 09:28:04;;;;;;;4.97;0.52;;;18.10;71.70;;;;;;5134078;28;20024;-74
2022/10/24 09:30:30;;;;;;;4.00;1.10;;;18.10;70.10;;;;;;5133729;28;20012;-73
2022/10/24 09:32:58;;;;;;;5.72;0.95;;;18.10;70.50;;;;;;5115508;28;20127;-74
2022/10/24 09:35:27;;;;;;;4.68;0.85;;;18.10;69.50;;;;;;5115979;28;20027;-74
2022/10/24 09:38:17;;;;;;;5.28;1.02;;;18.20;69.60;;;;;;5130489;28;20160;-74
2022/10/24 09:40:49;;;;;;;5.60;1.10;;;18.30;69.60;;;;;;5113294;28;20485;-74
2022/10/24 09:43:17;;;;;;;7.32;1.17;;;18.30;70.00;;;;;;5113386;28;20024;-74
2022/10/24 09:45:59;;;;;;;6.93;1.02;;;18.40;70.60;;;;;;5094637;28;20012;-74
2022/10/24 09:48:31;;;;;;;3.83;0.70;;;18.30;70.30;;;;;;5114018;28;20028;-74
2022/10/24 09:51:30;;;;;;;2.08;0.70;;;18.40;70.00;;;;;;5113874;28;20024;-73
2022/10/24 09:54:06;;;;;;;6.05;0.93;;;18.30;70.00;;;;;;5106034;28;20096;-74
2022/10/24 09:56:47;;;;;;;7.97;0.93;;;18.20;70.40;;;;;;5113814;28;20049;-73
2022/10/24 09:59:37;;;;;;;7.25;0.85;;;18.20;70.60;;;;;;5113966;28;20084;-73
2022/10/24 10:02:25;;;;;;;3.53;0.90;;;18.20;70.70;;;;;;5113682;28;20016;-76
2022/10/24 10:05:19;;;;;;;5.57;1.20;;;18.30;70.50;;;;;;5093670;28;20055;-78
2022/10/24 10:07:47;;;;;;;6.85;0.90;;;18.30;70.30;;;;;;5075802;28;20051;-78
2022/10/24 10:10:28;;;;;;;4.80;0.80;;;18.30;70.60;;;;;;5093380;28;20029;-77
2022/10/24 10:13:04;;;;;;;7.00;0.98;;;18.30;70.70;;;;;;5093276;28;20036;-77
2022/10/24 10:15:44;;;;;;;7.32;1.30;;;18.30;70.40;;;;;;5093489;28;20474;-78
2022/10/24 10:18:20;;;;;;;5.38;1.10;;;18.40;69.70;;;;;;5093051;28;20082;-79
2022/10/24 10:21:09;;;;;;;4.10;0.90;;;18.50;69.90;;;;;;5075505;28;20025;-78
2022/10/24 10:23:43;;;;;;;5.28;0.90;;;18.60;69.20;;;;;;5092267;28;20051;-77
2022/10/24 10:26:15;;;;;;;6.38;1.15;;;18.70;68.40;;;;;;5075458;28;20036;-79
2022/10/24 10:29:03;;;;;;;4.78;1.25;;;18.70;67.40;;;;;;5093183;28;20027;-79
2022/10/24 10:32:11;;;;;;;6.35;0.90;;;18.80;67.90;;;;;;5075403;28;20112;-78
2022/10/24 10:35:01;;;;;;;7.55;0.98;;;18.60;68.30;;;;;;5075130;28;20208;-75
2022/10/24 10:37:38;;;;;;;8.23;1.20;;;18.40;68.40;;;;;;5093142;28;20029;-75
2022/10/24 10:40:44;;;;;;;6.95;1.02;;;18.30;69.20;;;;;;5091696;28;20029;-76
2022/10/24 10:43:20;;;;;;;3.70;0.90;;;18.30;69.60;;;;;;5075148;28;20035;-76
2022/10/24 10:46:22;;;;;;;6.28;0.90;;;18.10;69.10;;;;;;5093104;28;20135;-76
2022/10/24 10:48:57;;;;;;;4.43;0.90;;;18.00;69.30;;;;;;5075192;28;20376;-74
2022/10/24 10:51:32;;;;;;;5.30;1.13;;;18.00;70.50;;;;;;5092991;28;20021;-75
2022/10/24 10:54:36;;;;;;;5.25;0.95;;;18.00;71.20;;;;;;5092754;28;20082;-75
2022/10/24 10:57:40;;;;;;;8.63;1.33;;;18.30;70.90;;;;;;5096406;28;20036;-74
2022/10/24 11:00:28;;;;;;;6.50;0.82;;;18.50;70.40;;;;;;5062882;28;20037;-75
2022/10/24 11:03:09;;;;;;;7.38;1.20;;;18.60;69.40;;;;;;5078985;28;20100;-75
2022/10/24 11:05:59;;;;;;;5.28;0.90;;;18.80;68.40;;;;;;5078910;28;20031;-74
2022/10/24 11:08:46;;;;;;;6.18;1.15;;;18.90;67.20;;;;;;5096666;28;20116;-75
2022/10/24 11:11:18;;;;;;;7.28;1.13;;;18.80;68.30;;;;;;5096734;28;20025;-74
2022/10/24 11:13:51;;;;;;;5.50;1.10;;;18.70;67.90;;;;;;5096734;28;20016;-74
2022/10/24 11:16:23;;;;;;;7.25;1.05;;;18.50;70.10;;;;;;5096552;28;20517;-74
2022/10/24 11:18:51;;;;;;;4.95;0.90;;;18.30;72.20;;;;;;5096621;28;20021;-74
2022/10/24 11:21:20;;;;;;;10.35;1.20;;;18.10;73.30;;;;;;5096374;28;20028;-74
2022/10/24 11:23:49;;;;;;;8.32;1.20;;;18.00;74.50;;;;;;5096194;28;20072;-74
2022/10/24 11:26:37;;;;;;;6.80;1.02;;;17.80;75.80;;;;;;5096285;28;20170;-74
2022/10/24 11:29:07;;;;;;;4.60;0.98;;;17.70;76.20;;;;;;5096305;28;20048;-74
2022/10/24 11:31:39;;;;;;;4.00;1.17;;;17.50;76.30;;;;;;5095300;28;20031;-74
2022/10/24 11:34:31;;;;;;;4.25;0.90;;;17.40;76.40;;;;;;5076416;28;20016;-74
2022/10/24 11:37:21;;;;;;;3.17;0.73;;;17.30;76.60;;;;;;5076754;28;20028;-75
2022/10/24 11:39:55;;;;;;;3.53;0.80;;;17.20;77.30;;;;;;5094327;28;20021;-74
2022/10/24 11:42:30;;;;;;;5.93;1.10;;;17.20;78.10;;;;;;5094597;28;20029;-75
2022/10/24 11:45:09;;;;;;;6.30;1.20;;;17.30;78.20;;;;;;5077314;28;20012;-75
2022/10/24 11:48:00;;;;;;;5.55;0.93;;;17.40;78.10;;;;;;5095132;28;20024;-74
2022/10/24 11:50:48;;;;;;;6.20;1.05;;;17.50;77.80;;;;;;5076641;28;20025;-75
2022/10/24 11:53:34;;;;;;;5.90;1.38;;;17.70;78.50;;;;;;5094009;28;20043;-75
2022/10/24 11:56:30;;;;;;;6.25;0.93;;;18.00;77.20;;;;;;5093241;28;20036;-74
2022/10/24 11:59:02;;;;;;;3.20;0.98;;;18.20;77.80;;;;;;5075707;28;20017;-75
2022/10/24 12:01:46;;;;;;;5.43;0.93;;;18.50;76.40;;;;;;5094480;28;20024;-74
2022/10/24 12:04:46;;;;;;;4.40;1.25;;;18.50;72.60;;;;;;5094284;28;20024;-75
2022/10/24 12:07:36;;;;;;;8.63;1.30;;;18.50;73.90;;;;;;5076080;28;20033;-74
2022/10/24 12:10:02;;;;;;;7.32;1.23;;;18.50;72.80;;;;;;5095631;28;20029;-75
2022/10/24 12:13:06;;;;;;;4.55;1.38;;;18.70;72.10;;;;;;5078045;28;20067;-75
2022/10/24 12:15:37;;;;;;;5.93;1.00;;;18.80;71.00;;;;;;5070120;28;20092;-75
2022/10/24 12:18:29;;;;;;;4.22;1.10;;;19.00;70.70;;;;;;5094660;28;20031;-74
2022/10/24 12:21:17;;;;;;;5.73;1.20;;;19.00;70.60;;;;;;5094965;28;20040;-78
2022/10/24 12:23:55;;;;;;;4.20;1.10;;;19.10;69.40;;;;;;5094742;28;20297;-79
2022/10/24 12:26:28;;;;;;;6.05;0.93;;;19.10;70.80;;;;;;5095351;28;20031;-78
2022/10/24 12:28:54;;;;;;;4.40;0.90;;;19.20;69.40;;;;;;5075200;28;20029;-78
2022/10/24 12:31:28;;;;;;;5.03;1.30;;;19.30;70.40;;;;;;5093875;28;20027;-73
2022/10/24 12:34:18;;;;;;;7.88;1.23;;;19.50;68.80;;;;;;5095409;28;20098;-72
2022/10/24 12:37:18;;;;;;;5.18;1.77;;;19.60;64.70;;;;;;5076670;28;20028;-73
2022/10/24 12:39:48;;;;;;;4.25;0.90;;;19.60;65.10;;;;;;5094774;28;20070;-73
2022/10/24 12:42:35;;;;;;;6.07;0.98;;;19.70;64.40;;;;;;5093514;28;20052;-74
2022/10/24 12:45:04;;;;;;;5.82;1.17;;;19.70;64.80;;;;;;5094570;28;20020;-73
2022/10/24 12:47:31;;;;;;;3.10;0.90;;;19.60;63.50;;;;;;5095155;28;20020;-73
2022/10/24 12:50:17;;;;;;;6.72;1.52;;;19.50;63.40;;;;;;5076224;28;20029;-73
2022/10/24 12:52:43;;;;;;;5.75;0.80;;;19.30;64.10;;;;;;5092620;28;20038;-74
2022/10/24 12:55:37;;;;;;;4.13;1.00;;;19.20;64.00;;;;;;5093111;28;20056;-73
2022/10/24 12:58:22;;;;;;;5.32;1.00;;;19.10;63.70;;;;;;5093745;28;20111;-73
2022/10/24 13:00:58;;;;;;;3.10;0.70;;;19.10;64.00;;;;;;5093716;28;20032;-73
2022/10/24 13:04:04;;;;;;;5.38;1.13;;;19.20;64.40;;;;;;5075906;28;20035;-74
2022/10/24 13:07:03;;;;;;;6.43;1.25;;;19.20;64.60;;;;;;5093422;28;20095;-79
2022/10/24 13:09:41;;;;;;;7.35;1.52;;;19.20;64.10;;;;;;5093774;28;20036;-73
2022/10/24 13:12:21;;;;;;;4.63;0.80;;;19.40;63.70;;;;;;5076629;28;20025;-74
2022/10/24 13:15:19;;;;;;;4.97;1.20;;;19.30;63.80;;;;;;5093361;28;20012;-75
2022/10/24 13:18:01;;;;;;;6.80;0.88;;;19.30;63.10;;;;;;5075548;28;20017;-75